createdAt,value
2023-05-27T00:01:37.430Z,99801.19
2023-05-27T00:04:06.269Z,99808.06
2023-05-27T00:06:34.834Z,99810.91
2023-05-27T00:09:03.433Z,99809.66
2023-05-27T00:11:31.741Z,99807.59
2023-05-27T00:14:00.257Z,99803.44
2023-05-27T00:16:29.494Z,99806.77
2023-05-27T00:18:57.828Z,99806.77
2023-05-27T00:21:26.230Z,99801.11
2023-05-27T00:23:54.726Z,99803.29
2023-05-27T00:26:23.146Z,99796.23
2023-05-27T00:28:51.695Z,99799.29
2023-05-27T00:31:20.046Z,99798.17
2023-05-27T00:33:48.405Z,99795.70
2023-05-27T00:36:17.077Z,99796.34
2023-05-27T00:38:45.553Z,99800.76
2023-05-27T00:41:14.100Z,99804.60
2023-05-27T00:43:42.514Z,99808.44
2023-05-27T00:46:11.696Z,99806.88
2023-05-27T00:48:40.384Z,99800.80
2023-05-27T00:51:09.632Z,99801.16
2023-05-27T00:53:44.021Z,99809.71
2023-05-27T00:56:22.484Z,99816.94
2023-05-27T00:58:51.206Z,99821.17
2023-05-27T01:01:20.521Z,99826.00
2023-05-27T01:03:48.902Z,99828.48
2023-05-27T01:06:24.676Z,99832.30
2023-05-27T01:09:12.188Z,99838.13
2023-05-27T01:11:56.689Z,99836.30
2023-05-27T01:14:27.113Z,99831.58
2023-05-27T01:16:58.392Z,99837.88
2023-05-27T01:19:46.590Z,99842.52
2023-05-27T01:22:16.264Z,99839.29
2023-05-27T01:24:45.474Z,99843.54
2023-05-27T01:27:14.010Z,99843.39
2023-05-27T01:29:43.002Z,99837.65
2023-05-27T01:32:21.963Z,99838.69
2023-05-27T01:35:02.337Z,99840.30
2023-05-27T01:37:36.941Z,99836.77
2023-05-27T01:40:08.263Z,99833.20
2023-05-27T01:42:39.063Z,99833.58
2023-05-27T01:45:09.338Z,99836.30
2023-05-27T01:47:38.578Z,99839.87
2023-05-27T01:50:08.040Z,99840.91
2023-05-27T01:52:36.914Z,99841.75
2023-05-27T01:55:06.342Z,99840.09
2023-05-27T01:57:35.115Z,99840.41
2023-05-27T02:00:06.342Z,99844.10
2023-05-27T02:02:45.717Z,99846.67
2023-05-27T02:05:16.462Z,99848.36
2023-05-27T02:07:45.846Z,99842.63
2023-05-27T02:10:14.133Z,99846.82
2023-05-27T02:12:42.895Z,99847.80
2023-05-27T02:15:11.505Z,99850.21
2023-05-27T02:17:40.090Z,99852.40
2023-05-27T02:20:08.801Z,99853.58
2023-05-27T02:22:37.434Z,99854.61
2023-05-27T02:25:06.363Z,99855.42
2023-05-27T02:27:34.731Z,99857.94
2023-05-27T02:30:03.981Z,99858.99
2023-05-27T02:32:33.769Z,99861.58
2023-05-27T02:35:02.148Z,99864.57
2023-05-27T02:37:30.523Z,99866.28
2023-05-27T02:39:58.978Z,99867.36
2023-05-27T02:42:27.232Z,99867.71
2023-05-27T02:44:55.794Z,99873.33
2023-05-27T02:47:25.206Z,99875.10
2023-05-27T02:49:53.517Z,99879.27
2023-05-27T02:52:21.825Z,99877.53
2023-05-27T02:54:50.326Z,99879.65
2023-05-27T02:57:19.975Z,99877.15
2023-05-27T02:59:48.484Z,99888.22
2023-05-27T03:02:16.833Z,99887.06
2023-05-27T03:04:45.658Z,99890.47
2023-05-27T03:07:14.325Z,99894.05
2023-05-27T03:09:42.705Z,99896.08
2023-05-27T03:12:11.005Z,99897.66
2023-05-27T03:14:39.389Z,99902.40
2023-05-27T03:17:07.690Z,99907.18
2023-05-27T03:19:36.687Z,99907.50
2023-05-27T03:22:06.156Z,99912.52
2023-05-27T03:24:34.855Z,99916.36
2023-05-27T03:27:04.603Z,99920.52
2023-05-27T03:29:33.946Z,99922.14
2023-05-27T03:32:02.453Z,99922.03
2023-05-27T03:34:31.111Z,99921.09
2023-05-27T03:37:00.134Z,99922.53
2023-05-27T03:39:42.484Z,99923.76
2023-05-27T03:42:11.046Z,99924.37
2023-05-27T03:44:39.396Z,99927.67
2023-05-27T03:47:07.868Z,99927.94
2023-05-27T03:49:36.346Z,99934.20
2023-05-27T03:52:04.949Z,99934.45
2023-05-27T03:54:33.271Z,99931.35
2023-05-27T03:57:02.450Z,99937.37
2023-05-27T03:59:31.162Z,99929.80
2023-05-27T04:01:59.509Z,99930.59
2023-05-27T04:04:28.011Z,99930.15
2023-05-27T04:06:56.779Z,99930.02
2023-05-27T04:09:25.129Z,99938.55
2023-05-27T04:11:53.559Z,99941.66
2023-05-27T04:14:25.541Z,99940.24
2023-05-27T04:16:54.284Z,99941.13
2023-05-27T04:19:23.340Z,99941.11
2023-05-27T04:21:51.753Z,99940.54
2023-05-27T04:24:20.604Z,99938.95
2023-05-27T04:26:49.918Z,99940.58
2023-05-27T04:29:19.910Z,99943.23
2023-05-27T04:31:48.259Z,99949.95
2023-05-27T04:34:19.185Z,99953.77
2023-05-27T04:36:50.936Z,99960.95
2023-05-27T04:39:23.179Z,99965.50
2023-05-27T04:41:52.441Z,99965.72
2023-05-27T04:44:34.060Z,99962.23
2023-05-27T04:47:04.052Z,99960.21
2023-05-27T04:49:33.169Z,99955.56
2023-05-27T04:52:02.598Z,99956.17
2023-05-27T04:54:31.981Z,99958.81
2023-05-27T04:57:00.992Z,99956.04
2023-05-27T04:59:47.595Z,99954.02
2023-05-27T05:02:28.658Z,99957.69
2023-05-27T05:05:09.719Z,99955.23
2023-05-27T05:07:39.230Z,99954.61
2023-05-27T05:10:12.663Z,99958.41
2023-05-27T05:12:49.845Z,99957.48
2023-05-27T05:15:18.527Z,99956.67
2023-05-27T05:17:48.909Z,99956.09
2023-05-27T05:20:20.517Z,99956.14
2023-05-27T05:22:49.935Z,99955.42
2023-05-27T05:25:32.213Z,99954.83
2023-05-27T05:28:00.529Z,99951.41
2023-05-27T05:30:30.965Z,99952.42
2023-05-27T05:33:00.726Z,99952.13
2023-05-27T05:35:32.512Z,99949.23
2023-05-27T05:38:14.738Z,99944.20
2023-05-27T05:40:49.976Z,99943.55
2023-05-27T05:43:19.487Z,99940.09
2023-05-27T05:45:48.128Z,99939.80
2023-05-27T05:48:17.710Z,99942.69
2023-05-27T05:50:46.356Z,99943.90
2023-05-27T05:53:15.259Z,99942.72
2023-05-27T05:55:43.840Z,99942.23
2023-05-27T05:58:12.419Z,99944.02
2023-05-27T06:00:40.769Z,99946.64
2023-05-27T06:03:26.734Z,99950.66
2023-05-27T06:05:57.643Z,99949.83
2023-05-27T06:08:26.084Z,99948.18
2023-05-27T06:11:07.626Z,99947.19
2023-05-27T06:13:36.185Z,99943.55
2023-05-27T06:16:07.220Z,99943.80
2023-05-27T06:18:35.808Z,99947.02
2023-05-27T06:21:04.442Z,99949.33
2023-05-27T06:23:39.369Z,99949.40
2023-05-27T06:26:16.050Z,99951.45
2023-05-27T06:28:49.228Z,99949.52
2023-05-27T06:31:18.039Z,99952.45
2023-05-27T06:33:46.451Z,99957.05
2023-05-27T06:36:14.899Z,99953.70
2023-05-27T06:38:43.882Z,99954.49
2023-05-27T06:41:12.489Z,99950.98
2023-05-27T06:43:45.225Z,99950.52
2023-05-27T06:46:27.704Z,99948.83
2023-05-27T06:49:03.375Z,99947.36
2023-05-27T06:51:33.145Z,99944.53
2023-05-27T06:54:01.474Z,99944.63
2023-05-27T06:56:48.191Z,99947.05
2023-05-27T06:59:50.872Z,99945.77
2023-05-27T07:02:19.595Z,99949.65
2023-05-27T07:04:48.189Z,99949.19
2023-05-27T07:07:16.925Z,99951.89
2023-05-27T07:09:45.401Z,99952.26
2023-05-27T07:12:13.842Z,99957.90
2023-05-27T07:14:48.302Z,99954.25
2023-05-27T07:17:16.910Z,99951.98
2023-05-27T07:19:45.635Z,99949.34
2023-05-27T07:22:17.873Z,99947.41
2023-05-27T07:24:46.902Z,99949.56
2023-05-27T07:27:15.345Z,99948.05
2023-05-27T07:29:49.298Z,99946.69
2023-05-27T07:32:34.318Z,99943.81
2023-05-27T07:35:03.003Z,99943.43
2023-05-27T07:37:31.451Z,99940.91
2023-05-27T07:39:59.922Z,99935.40
2023-05-27T07:42:32.617Z,99937.67
2023-05-27T07:45:04.127Z,99937.23
2023-05-27T07:47:32.749Z,99938.86
2023-05-27T07:50:00.995Z,99937.52
2023-05-27T07:52:41.752Z,99934.79
2023-05-27T07:55:30.564Z,99933.36
2023-05-27T07:57:58.892Z,99934.98
2023-05-27T08:00:32.097Z,99935.59
2023-05-27T08:03:01.011Z,99934.37
2023-05-27T08:05:48.404Z,99936.94
2023-05-27T08:08:46.707Z,99934.96
2023-05-27T08:11:33.422Z,99931.38
2023-05-27T08:14:36.526Z,99930.04
2023-05-27T08:17:25.213Z,99930.60
2023-05-27T08:19:59.434Z,99925.58
2023-05-27T08:22:48.009Z,99928.58
2023-05-27T08:25:39.340Z,99930.50
2023-05-27T08:28:26.115Z,99928.48
2023-05-27T08:31:11.548Z,99928.34
2023-05-27T08:33:42.986Z,99929.27
2023-05-27T08:36:12.876Z,99924.13
2023-05-27T08:38:43.348Z,99922.97
2023-05-27T08:41:34.165Z,99920.27
2023-05-27T08:44:20.737Z,99920.70
2023-05-27T08:46:57.499Z,99918.59
2023-05-27T08:49:26.173Z,99917.41
2023-05-27T08:51:56.065Z,99912.83
2023-05-27T08:54:26.392Z,99909.48
2023-05-27T08:56:58.884Z,99915.24
2023-05-27T08:59:27.728Z,99914.80
2023-05-27T09:01:57.962Z,99908.81
2023-05-27T09:04:27.139Z,99909.17
2023-05-27T09:06:55.756Z,99907.48
2023-05-27T09:09:24.059Z,99906.37
2023-05-27T09:11:52.484Z,99905.64
2023-05-27T09:14:23.691Z,99908.57
2023-05-27T09:16:52.192Z,99905.38
2023-05-27T09:19:21.433Z,99910.77
2023-05-27T09:21:53.935Z,99910.85
2023-05-27T09:24:26.147Z,99908.64
2023-05-27T09:26:56.628Z,99905.63
2023-05-27T09:29:27.926Z,99898.00
2023-05-27T09:31:57.037Z,99897.77
2023-05-27T09:34:25.474Z,99895.23
2023-05-27T09:36:53.985Z,99892.06
2023-05-27T09:39:23.720Z,99893.08
2023-05-27T09:41:56.679Z,99892.61
2023-05-27T09:44:31.005Z,99889.92
2023-05-27T09:47:00.557Z,99889.70
2023-05-27T09:49:30.818Z,99891.14
2023-05-27T09:52:00.157Z,99888.85
2023-05-27T09:54:29.009Z,99889.20
2023-05-27T09:56:58.966Z,99888.36
2023-05-27T09:59:27.622Z,99894.30
2023-05-27T10:01:57.295Z,99889.84
2023-05-27T10:04:26.586Z,99889.50
2023-05-27T10:06:55.330Z,99886.19
2023-05-27T10:09:24.117Z,99886.81
2023-05-27T10:11:52.682Z,99882.42
2023-05-27T10:14:21.164Z,99877.95
2023-05-27T10:16:57.967Z,99873.36
2023-05-27T10:19:26.500Z,99869.84
2023-05-27T10:21:54.816Z,99872.59
2023-05-27T10:24:32.488Z,99881.05
2023-05-27T10:27:06.224Z,99878.84
2023-05-27T10:29:41.338Z,99870.89
2023-05-27T10:32:09.843Z,99880.39
2023-05-27T10:34:39.416Z,99881.06
2023-05-27T10:37:08.334Z,99876.21
2023-05-27T10:39:36.738Z,99872.88
2023-05-27T10:42:05.298Z,99871.04
2023-05-27T10:44:35.358Z,99872.10
2023-05-27T10:47:05.034Z,99873.40
2023-05-27T10:49:39.061Z,99873.55
2023-05-27T10:52:14.328Z,99871.96
2023-05-27T10:54:48.046Z,99868.02
2023-05-27T10:57:19.314Z,99862.01
2023-05-27T10:59:58.736Z,99856.38
2023-05-27T11:02:36.232Z,99850.88
2023-05-27T11:05:12.718Z,99848.91
2023-05-27T11:07:42.233Z,99847.34
2023-05-27T11:10:11.533Z,99847.66
2023-05-27T11:12:44.891Z,99847.63
2023-05-27T11:15:13.257Z,99841.67
2023-05-27T11:17:41.738Z,99837.02
2023-05-27T11:20:11.395Z,99835.77
2023-05-27T11:22:39.803Z,99840.23
2023-05-27T11:25:10.607Z,99837.80
2023-05-27T11:27:40.502Z,99839.09
2023-05-27T11:30:11.632Z,99835.90
2023-05-27T11:32:44.091Z,99835.35
2023-05-27T11:35:15.171Z,99835.23
2023-05-27T11:37:53.381Z,99838.76
2023-05-27T11:40:21.976Z,99837.21
2023-05-27T11:42:50.581Z,99832.66
2023-05-27T11:45:21.117Z,99833.36
2023-05-27T11:47:52.391Z,99826.67
2023-05-27T11:50:22.612Z,99824.39
2023-05-27T11:52:54.552Z,99825.29
2023-05-27T11:55:24.012Z,99829.20
2023-05-27T11:57:52.807Z,99830.05
2023-05-27T12:00:21.709Z,99826.45
2023-05-27T12:02:50.263Z,99821.88
2023-05-27T12:05:34.297Z,99820.38
2023-05-27T12:08:04.858Z,99823.75
2023-05-27T12:10:33.251Z,99822.09
2023-05-27T12:13:07.108Z,99821.22
2023-05-27T12:15:35.576Z,99820.35
2023-05-27T12:18:06.509Z,99822.04
2023-05-27T12:20:34.810Z,99822.63
2023-05-27T12:23:03.849Z,99821.23
2023-05-27T12:25:32.442Z,99818.49
2023-05-27T12:28:00.790Z,99819.42
2023-05-27T12:30:29.486Z,99816.27
2023-05-27T12:32:57.736Z,99819.80
2023-05-27T12:35:26.932Z,99817.46
2023-05-27T12:37:55.381Z,99805.20
2023-05-27T12:40:23.732Z,99803.27
2023-05-27T12:42:52.175Z,99796.45
2023-05-27T12:45:24.116Z,99789.03
2023-05-27T12:47:53.486Z,99791.27
2023-05-27T12:50:22.881Z,99787.50
2023-05-27T12:52:55.426Z,99789.74
2023-05-27T12:55:23.902Z,99786.81
2023-05-27T12:57:53.804Z,99787.92
2023-05-27T13:00:23.133Z,99789.76
2023-05-27T13:02:52.122Z,99791.98
2023-05-27T13:05:21.818Z,99793.02
2023-05-27T13:08:02.469Z,99796.44
2023-05-27T13:10:31.305Z,99790.48
2023-05-27T13:13:01.846Z,99786.71
2023-05-27T13:15:31.042Z,99784.66
2023-05-27T13:18:00.919Z,99789.02
2023-05-27T13:20:32.392Z,99781.04
2023-05-27T13:23:02.075Z,99776.77
2023-05-27T13:25:30.973Z,99779.94
2023-05-27T13:27:59.653Z,99774.58
2023-05-27T13:30:28.361Z,99768.15
2023-05-27T13:32:57.473Z,99766.80
2023-05-27T13:35:25.982Z,99770.71
2023-05-27T13:37:55.318Z,99768.05
2023-05-27T13:40:23.774Z,99764.51
2023-05-27T13:42:55.985Z,99759.75
2023-05-27T13:45:26.004Z,99757.45
2023-05-27T13:47:54.625Z,99758.80
2023-05-27T13:50:22.945Z,99755.56
2023-05-27T13:52:51.397Z,99754.77
2023-05-27T13:55:19.676Z,99755.23
2023-05-27T13:57:48.344Z,99755.88
2023-05-27T14:00:18.013Z,99749.90
2023-05-27T14:02:46.442Z,99750.98
2023-05-27T14:05:14.971Z,99749.00
2023-05-27T14:07:45.172Z,99741.91
2023-05-27T14:10:13.584Z,99736.80
2023-05-27T14:12:42.000Z,99739.88
2023-05-27T14:15:10.960Z,99737.73
2023-05-27T14:17:40.883Z,99733.67
2023-05-27T14:20:13.312Z,99735.96
2023-05-27T14:22:43.482Z,99736.38
2023-05-27T14:25:12.092Z,99737.69
2023-05-27T14:27:42.013Z,99734.80
2023-05-27T14:30:10.645Z,99733.00
2023-05-27T14:32:38.998Z,99728.91
2023-05-27T14:35:09.000Z,99729.21
2023-05-27T14:37:37.616Z,99727.86
2023-05-27T14:40:07.103Z,99727.29
2023-05-27T14:42:35.415Z,99723.39
2023-05-27T14:45:04.193Z,99723.01
2023-05-27T14:47:32.487Z,99722.95
2023-05-27T14:50:00.824Z,99718.78
2023-05-27T14:52:29.353Z,99718.80
2023-05-27T14:54:57.656Z,99717.88
2023-05-27T14:57:25.956Z,99718.92
2023-05-27T14:59:54.290Z,99718.65
2023-05-27T15:02:23.537Z,99713.73
2023-05-27T15:04:52.186Z,99711.85
2023-05-27T15:07:23.611Z,99710.42
2023-05-27T15:09:51.891Z,99705.64
2023-05-27T15:12:20.205Z,99703.31
2023-05-27T15:14:48.527Z,99704.27
2023-05-27T15:17:16.903Z,99701.05
2023-05-27T15:19:45.205Z,99699.86
2023-05-27T15:22:13.642Z,99697.04
2023-05-27T15:24:42.082Z,99692.00
2023-05-27T15:27:10.704Z,99691.82
2023-05-27T15:29:39.178Z,99696.14
2023-05-27T15:32:07.608Z,99693.67
2023-05-27T15:34:35.993Z,99696.13
2023-05-27T15:37:04.671Z,99692.83
2023-05-27T15:39:32.969Z,99689.69
2023-05-27T15:42:01.152Z,99688.36
2023-05-27T15:44:29.590Z,99687.14
2023-05-27T15:46:57.963Z,99684.59
2023-05-27T15:49:26.354Z,99688.48
2023-05-27T15:51:54.766Z,99684.70
2023-05-27T15:54:23.078Z,99684.09
2023-05-27T15:56:51.359Z,99679.70
2023-05-27T15:59:19.796Z,99683.86
2023-05-27T16:01:48.135Z,99686.02
2023-05-27T16:04:16.508Z,99680.84
2023-05-27T16:06:44.839Z,99678.78
2023-05-27T16:09:13.381Z,99673.63
2023-05-27T16:11:41.633Z,99676.36
2023-05-27T16:14:09.928Z,99681.56
2023-05-27T16:16:38.447Z,99681.59
2023-05-27T16:19:06.895Z,99680.02
2023-05-27T16:21:35.371Z,99683.40
2023-05-27T16:24:07.784Z,99681.21
2023-05-27T16:26:36.950Z,99676.25
2023-05-27T16:29:05.915Z,99677.89
2023-05-27T16:31:34.269Z,99676.61
2023-05-27T16:34:02.754Z,99678.81
2023-05-27T16:36:31.608Z,99680.58
2023-05-27T16:39:00.052Z,99678.21
2023-05-27T16:41:28.702Z,99676.11
2023-05-27T16:43:57.100Z,99678.44
2023-05-27T16:46:25.833Z,99678.51
2023-05-27T16:48:54.232Z,99680.55
2023-05-27T16:51:22.565Z,99677.13
2023-05-27T16:53:50.906Z,99677.91
2023-05-27T16:56:19.488Z,99674.29
2023-05-27T16:58:47.870Z,99673.40
2023-05-27T17:01:16.314Z,99675.23
2023-05-27T17:03:44.760Z,99677.16
2023-05-27T17:06:13.140Z,99676.92
2023-05-27T17:08:41.618Z,99678.90
2023-05-27T17:11:09.933Z,99680.80
2023-05-27T17:13:38.251Z,99682.52
2023-05-27T17:16:07.635Z,99683.75
2023-05-27T17:18:36.778Z,99683.46
2023-05-27T17:21:05.440Z,99687.12
2023-05-27T17:23:33.729Z,99687.58
2023-05-27T17:26:02.089Z,99688.73
2023-05-27T17:28:30.945Z,99689.91
2023-05-27T17:30:59.665Z,99692.33
2023-05-27T17:33:28.247Z,99694.89
2023-05-27T17:35:56.648Z,99697.59
2023-05-27T17:38:27.919Z,99697.39
2023-05-27T17:40:56.795Z,99698.40
2023-05-27T17:43:25.106Z,99699.63
2023-05-27T17:45:53.383Z,99700.84
2023-05-27T17:48:21.974Z,99706.03
2023-05-27T17:50:50.679Z,99708.36
2023-05-27T17:53:19.247Z,99703.20
2023-05-27T17:55:47.682Z,99706.58
2023-05-27T17:58:16.448Z,99710.15
2023-05-27T18:00:46.593Z,99710.32
2023-05-27T18:03:15.357Z,99713.02
2023-05-27T18:05:43.966Z,99716.19
2023-05-27T18:08:12.243Z,99722.11
2023-05-27T18:10:40.584Z,99724.96
2023-05-27T18:13:14.417Z,99723.92
2023-05-27T18:15:43.251Z,99725.55
2023-05-27T18:18:11.724Z,99728.67
2023-05-27T18:20:40.227Z,99726.70
2023-05-27T18:23:08.684Z,99726.71
2023-05-27T18:25:37.112Z,99729.85
2023-05-27T18:28:06.244Z,99730.66
2023-05-27T18:30:34.630Z,99733.08
2023-05-27T18:33:06.851Z,99729.17
2023-05-27T18:35:36.502Z,99733.92
2023-05-27T18:38:06.456Z,99737.86
2023-05-27T18:40:36.856Z,99739.35
2023-05-27T18:43:06.436Z,99740.06
2023-05-27T18:45:52.190Z,99743.22
2023-05-27T18:48:20.961Z,99749.11
2023-05-27T18:50:49.662Z,99749.22
2023-05-27T18:53:19.685Z,99756.00
2023-05-27T18:55:48.236Z,99759.80
2023-05-27T18:58:17.242Z,99761.86
2023-05-27T19:00:45.901Z,99767.02
2023-05-27T19:03:17.141Z,99768.95
2023-05-27T19:05:46.973Z,99771.52
2023-05-27T19:08:15.433Z,99773.84
2023-05-27T19:10:44.527Z,99778.27
2023-05-27T19:13:13.167Z,99778.91
2023-05-27T19:15:41.585Z,99776.07
2023-05-27T19:18:13.964Z,99777.82
2023-05-27T19:20:43.558Z,99775.39
2023-05-27T19:23:12.072Z,99774.52
2023-05-27T19:25:40.437Z,99777.23
2023-05-27T19:28:09.792Z,99779.36
2023-05-27T19:30:38.232Z,99777.19
2023-05-27T19:33:06.701Z,99782.17
2023-05-27T19:35:35.143Z,99781.91
2023-05-27T19:38:03.428Z,99782.17
2023-05-27T19:40:32.303Z,99780.27
2023-05-27T19:43:00.985Z,99779.63
2023-05-27T19:45:29.409Z,99782.56
2023-05-27T19:47:59.675Z,99783.91
2023-05-27T19:50:28.262Z,99789.10
2023-05-27T19:52:56.607Z,99788.42
2023-05-27T19:55:24.916Z,99787.61
2023-05-27T19:57:53.370Z,99788.73
2023-05-27T20:00:21.604Z,99789.17
2023-05-27T20:02:50.023Z,99787.04
2023-05-27T20:05:18.620Z,99789.06
2023-05-27T20:07:46.876Z,99791.44
2023-05-27T20:10:15.751Z,99789.73
2023-05-27T20:12:45.575Z,99785.15
2023-05-27T20:15:15.012Z,99785.05
2023-05-27T20:17:43.583Z,99782.70
2023-05-27T20:20:13.334Z,99784.83
2023-05-27T20:22:41.874Z,99786.32
2023-05-27T20:25:10.696Z,99785.43
2023-05-27T20:27:41.052Z,99781.35
2023-05-27T20:30:10.050Z,99784.00
2023-05-27T20:32:39.553Z,99781.81
2023-05-27T20:35:09.668Z,99778.42
2023-05-27T20:37:38.075Z,99780.00
2023-05-27T20:40:10.459Z,99781.69
2023-05-27T20:42:39.535Z,99783.70
2023-05-27T20:45:08.276Z,99779.55
2023-05-27T20:47:38.618Z,99778.93
2023-05-27T20:50:08.571Z,99779.85
2023-05-27T20:52:37.313Z,99783.08
2023-05-27T20:55:08.874Z,99786.37
2023-05-27T20:57:37.504Z,99787.98
2023-05-27T21:00:06.420Z,99790.77
2023-05-27T21:02:37.362Z,99789.90
2023-05-27T21:05:07.182Z,99789.64
2023-05-27T21:07:35.589Z,99791.56
2023-05-27T21:10:04.295Z,99795.30
2023-05-27T21:12:32.769Z,99795.63
2023-05-27T21:15:01.058Z,99795.60
2023-05-27T21:17:29.465Z,99795.05
2023-05-27T21:19:58.374Z,99792.85
2023-05-27T21:22:26.892Z,99790.88
2023-05-27T21:24:55.138Z,99791.70
2023-05-27T21:27:23.522Z,99793.55
2023-05-27T21:29:53.098Z,99792.61
2023-05-27T21:32:23.983Z,99790.50
2023-05-27T21:34:52.559Z,99787.23
2023-05-27T21:37:20.992Z,99784.02
2023-05-27T21:39:49.487Z,99783.75
2023-05-27T21:42:19.481Z,99785.70
2023-05-27T21:44:47.819Z,99788.89
2023-05-27T21:47:16.102Z,99789.78
2023-05-27T21:49:44.539Z,99788.60
2023-05-27T21:52:12.880Z,99787.52
2023-05-27T21:54:41.212Z,99788.87
2023-05-27T21:57:09.574Z,99789.13
2023-05-27T21:59:37.914Z,99786.52
2023-05-27T22:02:06.212Z,99783.48
2023-05-27T22:04:34.649Z,99783.89
2023-05-27T22:07:03.021Z,99781.44
2023-05-27T22:09:31.542Z,99782.17
2023-05-27T22:11:59.938Z,99782.75
2023-05-27T22:14:28.434Z,99778.48
2023-05-27T22:16:56.728Z,99776.02
2023-05-27T22:19:25.115Z,99777.99
2023-05-27T22:21:53.413Z,99777.51
2023-05-27T22:24:21.670Z,99779.19
2023-05-27T22:26:50.088Z,99776.52
2023-05-27T22:29:18.562Z,99777.52
2023-05-27T22:31:47.002Z,99774.26
2023-05-27T22:34:15.414Z,99775.02
2023-05-27T22:36:45.763Z,99773.91
2023-05-27T22:39:14.113Z,99777.77
2023-05-27T22:41:42.427Z,99772.44
2023-05-27T22:44:10.647Z,99770.48
2023-05-27T22:46:39.056Z,99767.77
2023-05-27T22:49:07.576Z,99769.40
2023-05-27T22:51:37.776Z,99769.04
2023-05-27T22:54:06.121Z,99764.02
2023-05-27T22:56:34.479Z,99759.77
2023-05-27T22:59:02.826Z,99762.36
2023-05-27T23:01:31.148Z,99757.38
2023-05-27T23:03:59.685Z,99755.64
2023-05-27T23:06:28.201Z,99751.11
2023-05-27T23:08:56.521Z,99751.36
2023-05-27T23:11:26.889Z,99748.46
2023-05-27T23:13:55.148Z,99749.30
2023-05-27T23:16:23.469Z,99749.16
2023-05-27T23:18:51.826Z,99753.18
2023-05-27T23:21:20.246Z,99749.31
2023-05-27T23:23:48.627Z,99744.25
2023-05-27T23:26:17.550Z,99739.62
2023-05-27T23:28:45.769Z,99738.36
2023-05-27T23:31:14.051Z,99735.15
2023-05-27T23:33:42.440Z,99735.30
2023-05-27T23:36:10.780Z,99736.81
2023-05-27T23:38:39.723Z,99736.71
2023-05-27T23:41:08.128Z,99731.77
2023-05-27T23:43:36.565Z,99732.98
2023-05-27T23:46:04.927Z,99729.47
2023-05-27T23:48:34.646Z,99727.32
2023-05-27T23:51:03.038Z,99723.90
2023-05-27T23:53:31.308Z,99718.97
2023-05-27T23:55:59.677Z,99717.36
2023-05-27T23:58:28.030Z,99721.08
